createdAt,value
2017-10-14T00:01:20.703Z,6.50
2017-10-14T00:03:48.280Z,6.00
2017-10-14T00:06:15.869Z,6.20
2017-10-14T00:08:44.180Z,6.20
2017-10-14T00:11:11.752Z,4.70
2017-10-14T00:13:39.342Z,6.60
2017-10-14T00:16:07.277Z,5.80
2017-10-14T00:18:34.845Z,5.60
2017-10-14T00:21:02.382Z,5.53
2017-10-14T00:23:29.943Z,5.70
2017-10-14T00:25:57.505Z,5.27
2017-10-14T00:28:25.087Z,5.67
2017-10-14T00:30:52.647Z,5.83
2017-10-14T00:33:20.201Z,5.27
2017-10-14T00:35:47.789Z,5.80
2017-10-14T00:38:15.329Z,5.57
2017-10-14T00:40:42.891Z,5.83
2017-10-14T00:43:10.425Z,5.23
2017-10-14T00:45:37.995Z,5.33
2017-10-14T00:48:05.559Z,5.43
2017-10-14T00:50:33.095Z,5.83
2017-10-14T00:53:00.671Z,5.90
2017-10-14T00:55:28.196Z,6.03
2017-10-14T00:57:56.522Z,6.70
2017-10-14T01:00:24.113Z,6.50
2017-10-14T01:02:51.700Z,6.40
2017-10-14T01:05:19.251Z,5.73
2017-10-14T01:07:46.811Z,6.27
2017-10-14T01:10:15.154Z,6.40
2017-10-14T01:12:42.704Z,6.87
2017-10-14T01:15:11.241Z,6.30
2017-10-14T01:17:39.552Z,6.27
2017-10-14T01:20:07.125Z,6.70
2017-10-14T01:22:34.687Z,6.00
2017-10-14T01:25:02.248Z,6.10
2017-10-14T01:27:29.806Z,6.20
2017-10-14T01:29:57.378Z,6.43
2017-10-14T01:32:24.953Z,6.17
2017-10-14T01:34:52.525Z,6.30
2017-10-14T01:37:20.873Z,6.50
2017-10-14T01:39:48.423Z,6.47
2017-10-14T01:42:15.965Z,6.73
2017-10-14T01:44:43.546Z,6.87
2017-10-14T01:47:11.119Z,6.23
2017-10-14T01:49:38.667Z,6.27
2017-10-14T01:52:06.269Z,6.40
2017-10-14T01:54:34.621Z,6.87
2017-10-14T01:57:02.174Z,6.20
2017-10-14T01:59:29.736Z,6.77
2017-10-14T02:01:57.340Z,6.33
2017-10-14T02:04:24.923Z,6.60
2017-10-14T02:06:52.514Z,6.20
2017-10-14T02:09:20.066Z,6.00
2017-10-14T02:11:47.665Z,6.17
2017-10-14T02:14:15.992Z,6.23
2017-10-14T02:16:43.525Z,5.77
2017-10-14T02:19:11.100Z,6.17
2017-10-14T02:21:38.644Z,6.37
2017-10-14T02:24:06.224Z,6.80
2017-10-14T02:26:33.778Z,6.17
2017-10-14T02:29:01.342Z,5.70
2017-10-14T02:31:28.876Z,6.73
2017-10-14T02:33:57.205Z,6.77
2017-10-14T02:36:24.757Z,6.67
2017-10-14T02:38:52.350Z,8.07
2017-10-14T02:41:19.899Z,7.17
2017-10-14T02:43:47.462Z,6.33
2017-10-14T02:46:15.044Z,6.73
2017-10-14T02:48:43.374Z,7.13
2017-10-14T02:51:10.969Z,7.00
2017-10-14T02:53:38.520Z,6.40
2017-10-14T02:56:06.088Z,6.17
2017-10-14T02:58:33.633Z,6.80
2017-10-14T03:01:01.220Z,6.87
2017-10-14T03:03:29.554Z,6.90
2017-10-14T03:05:57.154Z,7.23
2017-10-14T03:08:25.484Z,6.90
2017-10-14T03:10:53.069Z,6.67
2017-10-14T03:13:21.417Z,7.70
2017-10-14T03:15:48.964Z,7.20
2017-10-14T03:18:16.742Z,6.87
2017-10-14T03:20:44.305Z,6.70
2017-10-14T03:23:11.842Z,6.50
2017-10-14T03:25:39.704Z,6.83
2017-10-14T03:28:07.317Z,6.90
2017-10-14T03:30:34.880Z,6.80
2017-10-14T03:33:02.453Z,7.53
2017-10-14T03:35:30.763Z,6.50
2017-10-14T03:37:58.334Z,7.80
2017-10-14T03:40:25.902Z,7.80
2017-10-14T03:42:53.484Z,8.37
2017-10-14T03:45:21.047Z,7.50
2017-10-14T03:47:48.593Z,7.10
2017-10-14T03:50:16.150Z,7.40
2017-10-14T03:52:43.693Z,6.97
2017-10-14T03:55:11.251Z,6.90
2017-10-14T03:57:38.773Z,7.10
2017-10-14T04:00:07.097Z,6.73
2017-10-14T04:02:34.642Z,6.40
2017-10-14T04:05:02.191Z,6.07
2017-10-14T04:07:29.737Z,6.57
2017-10-14T04:09:58.047Z,6.63
2017-10-14T04:12:25.609Z,7.17
2017-10-14T04:14:53.158Z,6.20
2017-10-14T04:17:20.718Z,6.97
2017-10-14T04:19:48.275Z,6.60
2017-10-14T04:22:15.851Z,7.30
2017-10-14T04:24:43.415Z,5.90
2017-10-14T04:27:10.985Z,7.30
2017-10-14T04:29:38.528Z,7.10
2017-10-14T04:32:06.062Z,7.70
2017-10-14T04:34:34.384Z,6.30
2017-10-14T04:37:01.954Z,6.70
2017-10-14T04:39:29.524Z,7.63
2017-10-14T04:41:57.071Z,6.83
2017-10-14T04:44:28.168Z,7.00
2017-10-14T04:46:56.616Z,5.77
2017-10-14T04:49:24.169Z,6.90
2017-10-14T04:51:51.725Z,6.37
2017-10-14T04:54:19.257Z,6.53
2017-10-14T04:56:46.814Z,6.87
2017-10-14T04:59:14.376Z,7.00
2017-10-14T05:01:42.685Z,6.50
2017-10-14T05:04:10.268Z,6.50
2017-10-14T05:06:38.561Z,6.60
2017-10-14T05:09:06.122Z,6.70
2017-10-14T05:11:33.905Z,6.60
2017-10-14T05:14:01.442Z,6.40
2017-10-14T05:16:28.994Z,6.33
2017-10-14T05:18:58.409Z,6.40
2017-10-14T05:21:26.020Z,6.47
2017-10-14T05:23:53.593Z,6.03
2017-10-14T05:26:21.150Z,5.70
2017-10-14T05:28:48.742Z,6.33
2017-10-14T05:31:16.335Z,5.60
2017-10-14T05:33:43.864Z,6.30
2017-10-14T05:36:12.173Z,6.40
2017-10-14T05:38:39.728Z,7.80
2017-10-14T05:41:08.056Z,6.70
2017-10-14T05:43:35.602Z,7.20
2017-10-14T05:46:03.163Z,6.73
2017-10-14T05:48:30.709Z,6.40
2017-10-14T05:50:58.292Z,5.93
2017-10-14T05:53:25.866Z,6.60
2017-10-14T05:55:54.182Z,7.20
2017-10-14T05:58:21.757Z,6.53
2017-10-14T06:00:49.318Z,6.57
2017-10-14T06:03:16.881Z,6.20
2017-10-14T06:05:44.508Z,7.10
2017-10-14T06:08:12.092Z,6.43
2017-10-14T06:10:39.686Z,5.90
2017-10-14T06:13:07.259Z,6.50
2017-10-14T06:15:34.829Z,6.47
2017-10-14T06:18:03.141Z,7.10
2017-10-14T06:20:30.703Z,6.10
2017-10-14T06:22:58.259Z,7.00
2017-10-14T06:25:25.828Z,7.00
2017-10-14T06:27:53.430Z,7.67
2017-10-14T06:30:20.979Z,8.07
2017-10-14T06:32:48.534Z,7.03
2017-10-14T06:35:16.077Z,7.00
2017-10-14T06:37:43.647Z,7.33
2017-10-14T06:40:11.212Z,7.63
2017-10-14T06:42:38.791Z,7.60
2017-10-14T06:45:06.343Z,8.37
2017-10-14T06:47:33.922Z,8.80
2017-10-14T06:50:02.232Z,10.23
2017-10-14T06:52:29.815Z,9.80
2017-10-14T06:54:57.378Z,9.70
2017-10-14T06:57:24.941Z,10.10
2017-10-14T06:59:52.526Z,11.33
2017-10-14T07:02:20.087Z,10.50
2017-10-14T07:04:47.653Z,10.50
2017-10-14T07:07:15.518Z,9.50
2017-10-14T07:09:43.080Z,10.70
2017-10-14T07:12:10.631Z,10.37
2017-10-14T07:14:38.198Z,10.60
2017-10-14T07:17:05.762Z,10.03
2017-10-14T07:19:34.094Z,9.77
2017-10-14T07:22:01.653Z,9.47
2017-10-14T07:24:29.253Z,10.73
2017-10-14T07:26:56.818Z,9.30
2017-10-14T07:29:24.372Z,9.33
2017-10-14T07:31:51.971Z,10.60
2017-10-14T07:34:19.542Z,9.73
2017-10-14T07:36:47.121Z,9.77
2017-10-14T07:39:15.253Z,9.67
2017-10-14T07:41:42.832Z,10.27
2017-10-14T07:44:10.433Z,10.60
2017-10-14T07:46:37.992Z,10.20
2017-10-14T07:49:05.733Z,10.20
2017-10-14T07:51:33.312Z,9.10
2017-10-14T07:54:00.907Z,9.00
2017-10-14T07:56:29.231Z,8.20
2017-10-14T07:58:56.807Z,8.70
2017-10-14T08:01:24.438Z,8.37
2017-10-14T08:03:52.037Z,8.20
2017-10-14T08:06:19.618Z,15.53
2017-10-14T08:08:47.202Z,10.20
2017-10-14T08:11:14.768Z,9.30
2017-10-14T08:13:42.316Z,7.47
2017-10-14T08:16:10.666Z,7.90
2017-10-14T08:18:38.242Z,8.13
2017-10-14T08:21:06.579Z,7.70
2017-10-14T08:23:34.118Z,7.33
2017-10-14T08:26:01.678Z,7.90
2017-10-14T08:28:30.044Z,14.70
2017-10-14T08:30:57.621Z,11.20
2017-10-14T08:33:25.959Z,7.60
2017-10-14T08:35:54.283Z,7.30
2017-10-14T08:38:21.850Z,7.53
2017-10-14T08:40:49.429Z,7.53
2017-10-14T08:43:17.007Z,14.30
2017-10-14T08:45:44.571Z,7.43
2017-10-14T08:48:12.920Z,7.60
2017-10-14T08:50:40.550Z,7.13
2017-10-14T08:53:08.139Z,7.20
2017-10-14T08:55:35.714Z,7.37
2017-10-14T08:58:03.308Z,7.27
2017-10-14T09:00:31.671Z,7.70
2017-10-14T09:03:00.029Z,7.13
2017-10-14T09:05:27.598Z,6.70
2017-10-14T09:07:55.216Z,7.10
2017-10-14T09:10:22.786Z,7.27
2017-10-14T09:12:50.343Z,6.73
2017-10-14T09:15:17.945Z,7.77
2017-10-14T09:17:45.492Z,7.33
2017-10-14T09:20:13.119Z,7.40
2017-10-14T09:22:40.665Z,7.70
2017-10-14T09:25:08.252Z,6.20
2017-10-14T09:27:35.803Z,7.07
2017-10-14T09:30:03.400Z,6.97
2017-10-14T09:32:30.970Z,7.33
2017-10-14T09:34:58.550Z,6.60
2017-10-14T09:37:26.899Z,6.60
2017-10-14T09:39:54.467Z,6.77
2017-10-14T09:42:22.066Z,7.00
2017-10-14T09:44:49.605Z,6.17
2017-10-14T09:47:17.950Z,6.20
2017-10-14T09:49:45.501Z,6.30
2017-10-14T09:52:13.083Z,6.10
2017-10-14T09:54:40.681Z,6.20
2017-10-14T09:57:08.224Z,5.60
2017-10-14T09:59:36.554Z,5.70
2017-10-14T10:02:04.112Z,5.40
2017-10-14T10:04:31.711Z,5.97
2017-10-14T10:09:59.869Z,5.70
2017-10-14T10:12:27.421Z,9.20
2017-10-14T10:14:54.999Z,6.50
2017-10-14T10:17:22.565Z,5.90
2017-10-14T10:19:50.134Z,6.00
2017-10-14T10:22:17.693Z,5.00
2017-10-14T10:24:45.261Z,5.13
2017-10-14T10:27:12.832Z,4.83
2017-10-14T10:29:41.171Z,4.20
2017-10-14T10:32:08.751Z,4.40
2017-10-14T10:34:36.310Z,4.97
2017-10-14T10:37:03.906Z,5.50
2017-10-14T10:39:32.217Z,4.80
2017-10-14T10:41:59.797Z,4.43
2017-10-14T10:44:27.424Z,4.93
2017-10-14T10:46:55.027Z,4.63
2017-10-14T10:49:22.633Z,4.90
2017-10-14T10:51:50.170Z,4.50
2017-10-14T10:54:18.534Z,4.20
2017-10-14T10:56:46.143Z,4.40
2017-10-14T10:59:14.281Z,4.20
2017-10-14T11:01:42.628Z,4.40
2017-10-14T11:04:10.261Z,4.47
2017-10-14T11:06:37.857Z,4.73
2017-10-14T11:09:05.424Z,4.37
2017-10-14T11:11:32.985Z,3.60
2017-10-14T11:14:00.523Z,4.00
2017-10-14T11:16:28.089Z,3.67
2017-10-14T11:18:55.654Z,4.27
2017-10-14T11:21:23.260Z,3.83
2017-10-14T11:23:50.809Z,3.40
2017-10-14T11:26:26.357Z,4.03
2017-10-14T11:28:54.714Z,4.67
2017-10-14T11:31:26.397Z,4.67
2017-10-14T11:33:54.151Z,4.70
2017-10-14T11:36:21.725Z,4.23
2017-10-14T11:38:50.189Z,4.37
2017-10-14T11:41:18.554Z,4.10
2017-10-14T11:43:46.123Z,4.10
2017-10-14T11:46:13.736Z,4.80
2017-10-14T11:48:41.300Z,4.20
2017-10-14T11:51:08.895Z,4.30
2017-10-14T11:53:36.471Z,3.97
2017-10-14T11:56:04.055Z,3.90
2017-10-14T11:58:32.481Z,3.73
2017-10-14T12:01:00.103Z,3.93
2017-10-14T12:03:28.421Z,4.17
2017-10-14T12:05:56.003Z,3.67
2017-10-14T12:08:23.586Z,3.77
2017-10-14T12:10:51.948Z,4.20
2017-10-14T12:13:19.511Z,4.23
2017-10-14T12:15:47.912Z,4.30
2017-10-14T12:18:16.231Z,4.47
2017-10-14T12:20:43.815Z,4.00
2017-10-14T12:23:11.353Z,3.83
2017-10-14T12:25:38.915Z,3.60
2017-10-14T12:28:06.496Z,4.00
2017-10-14T12:30:34.042Z,3.70
2017-10-14T12:33:01.622Z,3.70
2017-10-14T12:35:30.783Z,3.80
2017-10-14T12:38:01.072Z,3.63
2017-10-14T12:40:32.861Z,3.97
2017-10-14T12:43:00.417Z,3.73
2017-10-14T12:45:28.000Z,3.63
2017-10-14T12:47:56.318Z,3.60
2017-10-14T12:50:24.654Z,4.17
2017-10-14T12:52:52.216Z,3.80
2017-10-14T12:55:19.774Z,3.60
2017-10-14T12:57:47.319Z,3.30
2017-10-14T13:00:14.899Z,3.53
2017-10-14T13:02:42.470Z,3.30
2017-10-14T13:05:10.014Z,3.63
2017-10-14T13:07:37.588Z,3.60
2017-10-14T13:10:05.177Z,3.83
2017-10-14T13:12:33.492Z,3.60
2017-10-14T13:15:01.051Z,3.50
2017-10-14T13:17:28.616Z,3.47
2017-10-14T13:19:57.160Z,3.30
2017-10-14T13:22:25.485Z,3.87
2017-10-14T13:24:53.026Z,3.47
2017-10-14T13:27:20.589Z,3.73
2017-10-14T13:29:48.146Z,3.50
2017-10-14T13:32:15.734Z,3.50
2017-10-14T13:34:43.282Z,4.03
2017-10-14T13:37:10.865Z,3.80
2017-10-14T13:39:38.418Z,3.80
2017-10-14T13:42:06.004Z,4.07
2017-10-14T13:44:33.730Z,3.93
2017-10-14T13:47:02.032Z,3.93
2017-10-14T13:49:29.583Z,3.60
2017-10-14T13:51:57.142Z,4.00
2017-10-14T13:54:24.706Z,3.93
2017-10-14T13:56:53.205Z,3.80
2017-10-14T13:59:20.788Z,3.00
2017-10-14T14:01:49.086Z,3.40
2017-10-14T14:04:16.659Z,3.57
2017-10-14T14:06:44.222Z,3.47
2017-10-14T14:09:11.890Z,3.27
2017-10-14T14:11:39.445Z,3.23
2017-10-14T14:14:12.958Z,3.20
2017-10-14T14:16:40.980Z,2.80
2017-10-14T14:19:08.717Z,3.20
2017-10-14T14:21:37.227Z,2.97
2017-10-14T14:24:05.564Z,3.10
2017-10-14T14:26:33.127Z,3.37
2017-10-14T14:29:00.699Z,3.87
2017-10-14T14:31:28.548Z,3.57
2017-10-14T14:33:56.118Z,3.30
2017-10-14T14:36:23.692Z,3.60
2017-10-14T14:38:51.301Z,3.20
2017-10-14T14:41:18.869Z,3.13
2017-10-14T14:43:46.418Z,3.30
2017-10-14T14:46:13.988Z,2.83
2017-10-14T14:48:41.582Z,2.90
2017-10-14T14:51:09.676Z,3.43
2017-10-14T14:53:37.262Z,2.80
2017-10-14T14:56:05.005Z,2.90
2017-10-14T14:58:32.598Z,3.17
2017-10-14T15:01:00.806Z,2.67
2017-10-14T15:03:28.449Z,3.00
2017-10-14T15:05:56.788Z,2.93
2017-10-14T15:08:24.380Z,3.23
2017-10-14T15:10:54.746Z,3.30
2017-10-14T15:13:22.718Z,3.53
2017-10-14T15:15:52.125Z,3.10
2017-10-14T15:18:20.339Z,3.07
2017-10-14T15:20:49.270Z,3.50
2017-10-14T15:23:18.104Z,2.60
2017-10-14T15:25:46.102Z,3.27
2017-10-14T15:28:13.968Z,3.10
2017-10-14T15:30:41.680Z,3.20
2017-10-14T15:33:09.286Z,3.27
2017-10-14T15:35:37.138Z,3.20
2017-10-14T15:38:05.786Z,3.40
2017-10-14T15:40:33.565Z,3.43
2017-10-14T15:43:02.123Z,3.60
2017-10-14T15:45:29.938Z,3.80
2017-10-14T15:47:58.383Z,3.43
2017-10-14T15:50:26.177Z,4.00
2017-10-14T15:52:54.766Z,3.70
2017-10-14T15:55:22.347Z,3.50
2017-10-14T15:57:50.733Z,3.77
2017-10-14T16:00:18.292Z,3.50
2017-10-14T16:02:45.869Z,3.67
2017-10-14T16:05:13.425Z,3.60
2017-10-14T16:07:40.997Z,3.43
2017-10-14T16:10:08.522Z,4.10
2017-10-14T16:12:36.861Z,3.73
2017-10-14T16:15:04.410Z,4.07
2017-10-14T16:17:41.449Z,4.17
2017-10-14T16:20:22.253Z,3.70
2017-10-14T16:22:51.364Z,3.70
2017-10-14T16:25:23.246Z,4.33
2017-10-14T16:27:50.813Z,4.07
2017-10-14T16:30:18.408Z,3.90
2017-10-14T16:32:56.536Z,3.80
2017-10-14T16:35:24.409Z,4.30
2017-10-14T16:37:51.956Z,4.60
2017-10-14T16:40:19.549Z,5.33
2017-10-14T16:42:47.093Z,5.67
2017-10-14T16:45:15.455Z,5.43
2017-10-14T16:47:43.000Z,6.10
2017-10-14T16:50:22.608Z,6.63
2017-10-14T16:52:58.517Z,6.20
2017-10-14T16:55:27.611Z,7.07
2017-10-14T16:57:55.249Z,7.97
2017-10-14T17:03:32.091Z,8.17
2017-10-14T17:06:05.725Z,8.43
2017-10-14T17:08:36.316Z,7.80
2017-10-14T17:11:07.737Z,7.50
2017-10-14T17:13:37.527Z,7.73
2017-10-14T17:16:05.884Z,6.40
2017-10-14T17:18:35.112Z,7.33
2017-10-14T17:21:09.977Z,7.70
2017-10-14T17:23:37.563Z,7.57
2017-10-14T17:26:09.125Z,6.80
2017-10-14T17:28:39.897Z,7.10
2017-10-14T17:31:10.433Z,7.30
2017-10-14T17:33:41.329Z,6.67
2017-10-14T17:36:10.357Z,6.50
2017-10-14T17:38:39.564Z,6.30
2017-10-14T17:41:10.006Z,6.87
2017-10-14T17:43:40.469Z,5.80
2017-10-14T17:46:11.401Z,6.60
2017-10-14T17:48:40.099Z,6.80
2017-10-14T17:51:09.500Z,5.80
2017-10-14T17:53:39.204Z,6.43
2017-10-14T17:56:08.409Z,6.70
2017-10-14T17:58:38.622Z,6.00
2017-10-14T18:01:09.255Z,6.20
2017-10-14T18:03:39.839Z,6.30
2017-10-14T18:06:09.752Z,8.00
2017-10-14T18:08:39.511Z,5.87
2017-10-14T18:11:10.066Z,5.40
2017-10-14T18:13:50.668Z,5.00
2017-10-14T18:16:19.632Z,5.60
2017-10-14T18:18:49.931Z,5.27
2017-10-14T18:21:21.467Z,5.30
2017-10-14T18:23:50.454Z,5.03
2017-10-14T18:26:19.179Z,4.60
2017-10-14T18:28:46.739Z,4.50
2017-10-14T18:31:14.482Z,5.23
2017-10-14T18:33:42.049Z,4.87
2017-10-14T18:36:12.714Z,6.00
2017-10-14T18:38:42.863Z,5.93
2017-10-14T18:41:10.722Z,5.37
2017-10-14T18:43:43.895Z,6.23
2017-10-14T18:46:12.758Z,5.63
2017-10-14T18:48:41.806Z,5.97
2017-10-14T18:51:12.840Z,5.70
2017-10-14T18:53:42.901Z,5.87
2017-10-14T18:56:11.435Z,6.30
2017-10-14T18:58:42.264Z,7.43
2017-10-14T19:01:12.081Z,6.23
2017-10-14T19:03:41.839Z,5.30
2017-10-14T19:06:11.842Z,5.50
2017-10-14T19:08:42.267Z,6.03
2017-10-14T19:11:11.894Z,5.77
2017-10-14T19:13:42.560Z,5.73
2017-10-14T19:16:12.393Z,6.37
2017-10-14T19:18:43.831Z,6.40
2017-10-14T19:21:11.500Z,6.97
2017-10-14T19:23:41.774Z,6.73
2017-10-14T19:26:12.810Z,7.70
2017-10-14T19:28:41.432Z,6.83
2017-10-14T19:31:12.266Z,7.37
2017-10-14T19:33:43.385Z,6.50
2017-10-14T19:36:11.603Z,7.00
2017-10-14T19:38:39.171Z,7.80
2017-10-14T19:41:07.761Z,9.17
2017-10-14T19:43:37.187Z,10.10
2017-10-14T19:46:14.762Z,9.50
2017-10-14T19:48:42.366Z,9.07
2017-10-14T19:51:09.948Z,10.20
2017-10-14T19:53:41.372Z,9.03
2017-10-14T19:56:09.411Z,9.07
2017-10-14T19:58:39.919Z,9.53
2017-10-14T20:01:11.080Z,9.20
2017-10-14T20:03:40.982Z,9.10
2017-10-14T20:06:12.131Z,8.07
2017-10-14T20:08:40.471Z,6.97
2017-10-14T20:11:09.499Z,6.80
2017-10-14T20:13:40.484Z,7.23
2017-10-14T20:16:09.581Z,7.37
2017-10-14T20:18:40.925Z,7.63
2017-10-14T20:21:09.472Z,8.43
2017-10-14T20:23:40.857Z,9.20
2017-10-14T20:26:09.430Z,9.33
2017-10-14T20:28:39.302Z,8.40
2017-10-14T20:31:10.011Z,8.27
2017-10-14T20:33:40.552Z,8.27
2017-10-14T20:36:08.126Z,9.97
2017-10-14T20:38:44.625Z,10.03
2017-10-14T20:41:12.212Z,10.80
2017-10-14T20:43:42.052Z,9.40
2017-10-14T20:46:10.359Z,8.87
2017-10-14T20:48:41.977Z,9.40
2017-10-14T20:51:13.215Z,7.90
2017-10-14T20:53:41.753Z,8.63
2017-10-14T20:56:10.617Z,9.80
2017-10-14T20:58:40.935Z,10.03
2017-10-14T21:01:09.967Z,9.00
2017-10-14T21:03:41.429Z,9.20
2017-10-14T21:06:08.997Z,8.70
2017-10-14T21:08:40.220Z,9.80
2017-10-14T21:11:11.934Z,9.43
2017-10-14T21:13:47.252Z,9.17
2017-10-14T21:16:19.965Z,8.80
2017-10-14T21:18:52.511Z,10.23
2017-10-14T21:21:21.366Z,9.67
2017-10-14T21:23:53.669Z,9.80
2017-10-14T21:29:22.484Z,10.27
2017-10-14T21:31:50.435Z,10.80
2017-10-14T21:34:22.045Z,12.53
2017-10-14T21:36:52.393Z,11.53
2017-10-14T21:39:25.688Z,10.83
2017-10-14T21:41:53.298Z,11.27
2017-10-14T21:44:20.964Z,9.70
2017-10-14T21:46:50.769Z,9.53
2017-10-14T21:49:21.990Z,9.83
2017-10-14T21:51:53.484Z,9.90
2017-10-14T21:54:24.036Z,9.87
2017-10-14T21:56:53.670Z,10.43
2017-10-14T21:59:24.940Z,9.40
2017-10-14T22:01:53.698Z,9.87
2017-10-14T22:04:22.065Z,10.80
2017-10-14T22:06:50.402Z,9.23
2017-10-14T22:09:17.987Z,9.90
2017-10-14T22:11:45.540Z,9.30
2017-10-14T22:14:13.137Z,9.53
2017-10-14T22:16:41.518Z,10.23
2017-10-14T22:19:09.874Z,9.87
2017-10-14T22:21:37.434Z,9.67
2017-10-14T22:24:04.991Z,9.27
2017-10-14T22:26:32.613Z,10.53
2017-10-14T22:29:00.225Z,9.70
2017-10-14T22:31:28.557Z,10.80
2017-10-14T22:33:56.130Z,10.83
2017-10-14T22:36:23.697Z,10.13
2017-10-14T22:38:51.282Z,10.87
2017-10-14T22:41:18.906Z,11.20
2017-10-14T22:43:46.459Z,12.00
2017-10-14T22:46:14.049Z,10.13
2017-10-14T22:48:41.639Z,10.27
2017-10-14T22:51:10.002Z,10.47
2017-10-14T22:53:37.564Z,9.03
2017-10-14T22:56:05.929Z,10.20
2017-10-14T22:58:33.489Z,9.83
2017-10-14T23:01:01.034Z,9.60
2017-10-14T23:03:28.624Z,9.70
2017-10-14T23:05:56.965Z,11.10
2017-10-14T23:08:24.538Z,9.70
2017-10-14T23:10:52.093Z,10.20
2017-10-14T23:13:19.683Z,10.10
2017-10-14T23:15:48.029Z,10.10
2017-10-14T23:18:15.619Z,10.53
2017-10-14T23:20:43.982Z,10.33
2017-10-14T23:23:11.563Z,10.97
2017-10-14T23:25:39.935Z,9.90
2017-10-14T23:28:07.523Z,10.20
2017-10-14T23:30:35.082Z,9.77
2017-10-14T23:33:02.655Z,10.97
2017-10-14T23:35:30.214Z,10.93
2017-10-14T23:37:57.825Z,10.27
2017-10-14T23:40:25.394Z,10.40
2017-10-14T23:42:52.975Z,11.00
2017-10-14T23:45:21.311Z,9.97
2017-10-14T23:47:48.941Z,10.47
2017-10-14T23:50:16.508Z,9.70
2017-10-14T23:52:44.063Z,11.13
2017-10-14T23:55:11.650Z,11.80
2017-10-14T23:57:39.225Z,9.60
